Terminal Aerodrome Forecast
Issued by NWS Wilmington, OH

Current Version | Previous Version | Graphics & Text | Print | Product List | Glossary On
Versions: 1 2 3 4 5 6 7 8 9 10 11 12 13 14 15 16 17 18 19 20
752
FTUS41 KILN 152329
TAFCMH
TAF
KCMH 152329Z 1600/1624 19005KT 3/4SM -SN BR OVC011
      TEMPO 1600/1601 1/2SM SN VV007
     FM160100 24008KT P6SM VCSH OVC015
      TEMPO 1601/1603 4SM -SN
     FM160600 26007KT P6SM OVC025
     FM161400 25007KT P6SM OVC015=

USA.gov is the U.S. government's official web portal to all federal, state and local government web resources and services.